Time;durP1;ratioP1;P1;durP2;ratioP2;P2;SDS_P1;SDS_P2;PMS_P1;PMS_P2;Temp;Humidity;BMP_temperature;BMP_pressure;BME280_temperature;BME280_humidity;BME280_pressure;Samples;Min_cycle;Max_cycle;Signal;HPM_P1;HPM_P2
2023/05/03 00:01:09;;;;;;;;;15.25;14.00;;;;;;;;5013768;28;45412;-72
2023/05/03 00:03:36;;;;;;;;;15.25;13.25;;;;;;;;5013852;28;45486;-72
2023/05/03 00:06:11;;;;;;;;;14.00;11.50;;;;;;;;5013325;28;45533;-72
2023/05/03 00:08:37;;;;;;;;;15.25;13.00;;;;;;;;5013045;28;47265;-72
2023/05/03 00:11:02;;;;;;;;;18.75;17.00;;;;;;;;5012965;28;45466;-72
2023/05/03 00:13:27;;;;;;;;;17.25;13.25;;;;;;;;5013459;28;45609;-72
2023/05/03 00:15:52;;;;;;;;;13.00;12.50;;;;;;;;5016700;28;45422;-72
2023/05/03 00:18:17;;;;;;;;;15.25;14.00;;;;;;;;5037299;28;45537;-72
2023/05/03 00:20:43;;;;;;;;;16.25;15.00;;;;;;;;5036686;28;45526;-72
2023/05/03 00:23:08;;;;;;;;;14.50;13.00;;;;;;;;5037449;28;45394;-73
2023/05/03 00:25:33;;;;;;;;;17.75;13.50;;;;;;;;5037690;28;45541;-72
2023/05/03 00:27:59;;;;;;;;;16.75;15.50;;;;;;;;5037435;28;45434;-73
2023/05/03 00:30:24;;;;;;;;;11.00;11.00;;;;;;;;5036604;28;45387;-72
2023/05/03 00:32:50;;;;;;;;;24.25;20.75;;;;;;;;5038402;28;45326;-72
2023/05/03 00:35:15;;;;;;;;;18.75;17.25;;;;;;;;5038306;28;45504;-72
2023/05/03 00:37:40;;;;;;;;;19.25;17.25;;;;;;;;5038295;28;47353;-73
2023/05/03 00:40:06;;;;;;;;;17.50;17.00;;;;;;;;5037845;28;45327;-71
2023/05/03 00:42:32;;;;;;;;;14.75;14.00;;;;;;;;5028280;28;45323;-71
2023/05/03 00:44:58;;;;;;;;;22.00;19.00;;;;;;;;5018042;28;45413;-72
2023/05/03 00:47:23;;;;;;;;;19.75;17.50;;;;;;;;5017889;28;46154;-72
2023/05/03 00:49:48;;;;;;;;;14.50;14.00;;;;;;;;5017943;28;45397;-72
2023/05/03 00:52:15;;;;;;;;;12.25;12.25;;;;;;;;5000240;28;45546;-71
2023/05/03 00:54:40;;;;;;;;;10.25;9.00;;;;;;;;5016882;28;45514;-72
2023/05/03 00:57:06;;;;;;;;;17.75;16.75;;;;;;;;5017771;28;45962;-70
2023/05/03 00:59:33;;;;;;;;;15.75;15.75;;;;;;;;5017764;28;45446;-72
2023/05/03 01:01:58;;;;;;;;;16.75;14.25;;;;;;;;5017842;28;45454;-72
2023/05/03 01:04:23;;;;;;;;;11.50;11.50;;;;;;;;5017537;28;45497;-72
2023/05/03 01:07:13;;;;;;;;;17.00;15.50;;;;;;;;5017708;28;45993;-72
2023/05/03 01:09:39;;;;;;;;;14.75;14.00;;;;;;;;5017825;28;45474;-72
2023/05/03 01:12:10;;;;;;;;;18.00;14.25;;;;;;;;5017334;28;45441;-72
2023/05/03 01:14:36;;;;;;;;;20.25;17.50;;;;;;;;5017959;28;45326;-72
2023/05/03 01:17:04;;;;;;;;;15.75;15.75;;;;;;;;5017260;28;46543;-72
2023/05/03 01:19:37;;;;;;;;;12.50;12.50;;;;;;;;5017486;28;45408;-72
2023/05/03 01:22:23;;;;;;;;;15.25;15.25;;;;;;;;5035255;28;45422;-72
2023/05/03 01:24:53;;;;;;;;;17.75;15.75;;;;;;;;4975470;28;45487;-72
2023/05/03 01:27:18;;;;;;;;;18.00;15.50;;;;;;;;4975230;28;45443;-72
2023/05/03 01:29:44;;;;;;;;;16.75;13.00;;;;;;;;4975292;28;45417;-72
2023/05/03 01:32:14;;;;;;;;;15.50;13.50;;;;;;;;4975134;28;45436;-72
2023/05/03 01:34:53;;;;;;;;;14.25;14.00;;;;;;;;4959569;28;45591;-72
2023/05/03 01:37:19;;;;;;;;;16.00;14.00;;;;;;;;4975355;28;46474;-72
2023/05/03 01:39:55;;;;;;;;;15.50;15.50;;;;;;;;4958776;28;46145;-72
2023/05/03 01:42:21;;;;;;;;;15.50;13.75;;;;;;;;4967392;28;45392;-72
2023/05/03 01:44:48;;;;;;;;;4.50;3.50;;;;;;;;4955816;28;45374;-73
2023/05/03 01:47:14;;;;;;;;;13.75;13.75;;;;;;;;4955395;28;45582;-72
2023/05/03 01:49:39;;;;;;;;;14.75;12.75;;;;;;;;4955653;28;45403;-73
2023/05/03 01:52:05;;;;;;;;;14.25;12.75;;;;;;;;4955553;28;45375;-73
2023/05/03 01:54:30;;;;;;;;;11.75;11.75;;;;;;;;4942050;28;45549;-73
2023/05/03 01:56:55;;;;;;;;;17.75;17.50;;;;;;;;4955878;28;45338;-72
2023/05/03 01:59:20;;;;;;;;;17.75;16.50;;;;;;;;4956666;28;45392;-73
2023/05/03 02:01:46;;;;;;;;;16.25;14.25;;;;;;;;4983656;28;45335;-73
2023/05/03 02:04:11;;;;;;;;;9.75;9.75;;;;;;;;5017512;28;45332;-73
2023/05/03 02:06:36;;;;;;;;;12.00;12.00;;;;;;;;5016801;28;47369;-73
2023/05/03 02:09:02;;;;;;;;;16.00;14.25;;;;;;;;5016969;28;45343;-72
2023/05/03 02:11:27;;;;;;;;;14.75;13.00;;;;;;;;5016992;28;45388;-73
2023/05/03 02:13:52;;;;;;;;;13.75;13.00;;;;;;;;5020055;28;45391;-73
2023/05/03 02:16:17;;;;;;;;;13.75;12.75;;;;;;;;5026443;28;45411;-73
2023/05/03 02:18:43;;;;;;;;;13.75;12.50;;;;;;;;5025977;28;45422;-73
2023/05/03 02:21:09;;;;;;;;;14.75;13.00;;;;;;;;5039555;28;45439;-73
2023/05/03 02:23:34;;;;;;;;;15.50;14.00;;;;;;;;5046971;28;45316;-73
2023/05/03 02:25:59;;;;;;;;;14.25;12.00;;;;;;;;5046660;28;46402;-73
2023/05/03 02:28:25;;;;;;;;;9.75;9.75;;;;;;;;5046539;28;45393;-73
2023/05/03 02:30:50;;;;;;;;;10.25;10.00;;;;;;;;5044984;28;45443;-73
2023/05/03 02:33:16;;;;;;;;;11.75;11.75;;;;;;;;5046616;28;45549;-73
2023/05/03 02:35:41;;;;;;;;;13.00;12.00;;;;;;;;5045821;28;47130;-72
2023/05/03 02:38:06;;;;;;;;;14.75;12.25;;;;;;;;5041383;28;45332;-73
2023/05/03 02:40:31;;;;;;;;;13.00;11.00;;;;;;;;5036179;28;45319;-72
2023/05/03 02:42:56;;;;;;;;;13.50;13.25;;;;;;;;5021249;28;45492;-72
2023/05/03 02:45:22;;;;;;;;;15.25;13.25;;;;;;;;5015743;28;45406;-72
2023/05/03 02:47:47;;;;;;;;;12.25;12.00;;;;;;;;5016090;28;45368;-73
2023/05/03 02:50:12;;;;;;;;;11.75;11.75;;;;;;;;5016111;28;45704;-73
2023/05/03 02:52:37;;;;;;;;;13.00;12.25;;;;;;;;5015480;28;45474;-72
2023/05/03 02:55:04;;;;;;;;;15.50;13.75;;;;;;;;5015733;28;46229;-72
2023/05/03 02:57:29;;;;;;;;;16.50;14.75;;;;;;;;5015719;28;45464;-72
2023/05/03 02:59:54;;;;;;;;;10.25;10.25;;;;;;;;5015663;28;45459;-71
2023/05/03 03:02:20;;;;;;;;;12.75;11.25;;;;;;;;5015938;28;45614;-71
2023/05/03 03:04:46;;;;;;;;;15.00;14.50;;;;;;;;5015616;28;45356;-71
2023/05/03 03:07:11;;;;;;;;;10.50;8.25;;;;;;;;5015870;28;45510;-71
2023/05/03 03:09:36;;;;;;;;;20.50;18.00;;;;;;;;5014512;28;45430;-71
2023/05/03 03:12:02;;;;;;;;;16.75;14.25;;;;;;;;5015603;28;45488;-71
2023/05/03 03:14:27;;;;;;;;;12.25;11.50;;;;;;;;5015467;28;46160;-72
2023/05/03 03:16:52;;;;;;;;;17.50;14.00;;;;;;;;5026352;28;45516;-74
2023/05/03 03:19:18;;;;;;;;;14.50;14.25;;;;;;;;5035733;28;45457;-74
2023/05/03 03:21:43;;;;;;;;;13.25;11.50;;;;;;;;5034519;28;45565;-74
2023/05/03 03:24:08;;;;;;;;;18.00;16.75;;;;;;;;5035275;28;46312;-74
2023/05/03 03:26:33;;;;;;;;;14.75;14.25;;;;;;;;5035724;28;45353;-74
2023/05/03 03:28:59;;;;;;;;;12.50;11.00;;;;;;;;5035206;28;45535;-73
2023/05/03 03:31:24;;;;;;;;;14.75;13.25;;;;;;;;5035241;28;45469;-71
2023/05/03 03:33:50;;;;;;;;;17.25;14.50;;;;;;;;5035127;28;46401;-71
2023/05/03 03:36:16;;;;;;;;;14.75;14.75;;;;;;;;5033819;28;45656;-72
2023/05/03 03:38:41;;;;;;;;;19.25;16.25;;;;;;;;5035294;28;45413;-71
2023/05/03 03:41:06;;;;;;;;;16.25;15.00;;;;;;;;5033546;28;45395;-72
2023/05/03 03:43:31;;;;;;;;;16.25;15.00;;;;;;;;5014920;28;48739;-71
2023/05/03 03:45:57;;;;;;;;;16.00;15.50;;;;;;;;5014999;28;45272;-71
2023/05/03 03:48:22;;;;;;;;;14.25;14.25;;;;;;;;5015427;28;45371;-71
2023/05/03 03:50:48;;;;;;;;;18.25;17.75;;;;;;;;5012715;28;45375;-72
2023/05/03 03:53:13;;;;;;;;;19.50;17.50;;;;;;;;5014786;28;45327;-71
2023/05/03 03:55:38;;;;;;;;;19.50;16.00;;;;;;;;5014962;28;45325;-71
2023/05/03 03:58:04;;;;;;;;;12.50;11.25;;;;;;;;5014865;28;45327;-71
2023/05/03 04:00:29;;;;;;;;;18.25;14.75;;;;;;;;5015096;28;45307;-71
2023/05/03 04:02:54;;;;;;;;;19.00;16.25;;;;;;;;5014515;28;46936;-71
2023/05/03 04:05:20;;;;;;;;;12.25;10.75;;;;;;;;5014850;28;45280;-72
2023/05/03 04:07:45;;;;;;;;;15.50;15.00;;;;;;;;5015108;28;45355;-73
2023/05/03 04:10:10;;;;;;;;;16.25;16.25;;;;;;;;5015046;28;45269;-72
2023/05/03 04:12:36;;;;;;;;;17.25;16.00;;;;;;;;5013283;28;47197;-72
2023/05/03 04:15:02;;;;;;;;;18.25;18.25;;;;;;;;5014531;28;45378;-72
2023/05/03 04:17:28;;;;;;;;;20.50;17.50;;;;;;;;5030264;28;45283;-72
2023/05/03 04:19:53;;;;;;;;;19.25;17.25;;;;;;;;5034909;28;45414;-73
2023/05/03 04:22:18;;;;;;;;;16.75;16.75;;;;;;;;5033030;28;47756;-72
2023/05/03 04:24:44;;;;;;;;;16.25;15.25;;;;;;;;5034720;28;45355;-72
2023/05/03 04:27:10;;;;;;;;;20.00;17.75;;;;;;;;5034582;28;45303;-73
2023/05/03 04:29:37;;;;;;;;;16.75;16.75;;;;;;;;5034359;28;45453;-73
2023/05/03 04:32:02;;;;;;;;;17.75;17.00;;;;;;;;5033148;28;47636;-72
2023/05/03 04:34:30;;;;;;;;;19.50;17.25;;;;;;;;5034531;28;45406;-72
2023/05/03 04:36:55;;;;;;;;;17.50;17.50;;;;;;;;5033578;28;45419;-72
2023/05/03 04:39:21;;;;;;;;;17.00;16.25;;;;;;;;5034372;28;45506;-72
2023/05/03 04:41:47;;;;;;;;;18.75;17.25;;;;;;;;5028738;28;45746;-72
2023/05/03 04:44:13;;;;;;;;;15.75;14.00;;;;;;;;5014474;28;45380;-72
2023/05/03 04:46:38;;;;;;;;;15.00;15.00;;;;;;;;5013495;28;45444;-72
2023/05/03 04:49:04;;;;;;;;;16.75;14.75;;;;;;;;5014253;28;45379;-72
2023/05/03 04:51:30;;;;;;;;;19.25;16.00;;;;;;;;5014379;28;45481;-72
2023/05/03 04:53:56;;;;;;;;;13.00;13.00;;;;;;;;5014544;28;45473;-72
2023/05/03 04:56:25;;;;;;;;;19.00;17.50;;;;;;;;5014391;28;45331;-70
2023/05/03 04:58:51;;;;;;;;;19.50;16.00;;;;;;;;5014369;28;45367;-72
2023/05/03 05:01:16;;;;;;;;;19.25;17.00;;;;;;;;5014389;28;45320;-72
2023/05/03 05:03:41;;;;;;;;;21.25;18.50;;;;;;;;5017891;28;45256;-72
2023/05/03 05:06:08;;;;;;;;;24.25;23.25;;;;;;;;5016740;28;45374;-72
2023/05/03 05:08:33;;;;;;;;;18.25;17.25;;;;;;;;5017782;28;45576;-72
2023/05/03 05:11:00;;;;;;;;;20.50;18.25;;;;;;;;5017373;28;47061;-72
2023/05/03 05:13:25;;;;;;;;;19.25;16.00;;;;;;;;5017758;28;45368;-72
2023/05/03 05:15:50;;;;;;;;;21.75;15.50;;;;;;;;5017684;28;45455;-73
2023/05/03 05:18:16;;;;;;;;;17.75;14.50;;;;;;;;5016549;28;45559;-72
2023/05/03 05:20:41;;;;;;;;;19.50;16.50;;;;;;;;5017477;28;45596;-72
2023/05/03 05:23:06;;;;;;;;;19.25;17.75;;;;;;;;5017489;28;45340;-72
2023/05/03 05:25:31;;;;;;;;;20.75;19.00;;;;;;;;5017529;28;45446;-72
2023/05/03 05:27:56;;;;;;;;;17.00;14.00;;;;;;;;5017911;28;45356;-73
2023/05/03 05:30:22;;;;;;;;;18.50;17.50;;;;;;;;5016080;28;47665;-73
2023/05/03 05:32:47;;;;;;;;;21.75;16.75;;;;;;;;5025822;28;45427;-73
2023/05/03 05:35:15;;;;;;;;;17.50;17.00;;;;;;;;5037368;28;45372;-73
2023/05/03 05:37:40;;;;;;;;;21.75;18.75;;;;;;;;5037684;28;45433;-73
2023/05/03 05:40:06;;;;;;;;;15.00;14.00;;;;;;;;5036919;28;46137;-73
2023/05/03 05:42:31;;;;;;;;;17.75;17.00;;;;;;;;5025935;28;45387;-72
2023/05/03 05:44:57;;;;;;;;;17.75;17.50;;;;;;;;5017101;28;45479;-73
2023/05/03 05:47:22;;;;;;;;;20.25;19.50;;;;;;;;5017377;28;45406;-73
2023/05/03 05:49:47;;;;;;;;;17.75;15.50;;;;;;;;5017000;28;46219;-74
2023/05/03 05:52:12;;;;;;;;;19.75;18.25;;;;;;;;5015610;28;45430;-73
2023/05/03 05:54:37;;;;;;;;;17.50;16.50;;;;;;;;5017051;28;45455;-74
2023/05/03 05:57:03;;;;;;;;;19.50;17.00;;;;;;;;5016858;28;45418;-73
2023/05/03 05:59:30;;;;;;;;;17.25;15.75;;;;;;;;5016966;28;46659;-73
2023/05/03 06:01:56;;;;;;;;;20.75;19.00;;;;;;;;5016769;28;45359;-73
2023/05/03 06:04:21;;;;;;;;;19.50;17.75;;;;;;;;5015702;28;45522;-73
2023/05/03 06:06:46;;;;;;;;;16.00;15.00;;;;;;;;5017180;28;45414;-73
2023/05/03 06:09:12;;;;;;;;;15.25;13.50;;;;;;;;5016535;28;46210;-73
2023/05/03 06:11:38;;;;;;;;;21.75;18.00;;;;;;;;5016605;28;45450;-73
2023/05/03 06:14:08;;;;;;;;;14.25;14.25;;;;;;;;5015598;28;45408;-73
2023/05/03 06:16:33;;;;;;;;;14.75;12.75;;;;;;;;5016892;28;45327;-73
2023/05/03 06:18:59;;;;;;;;;15.00;14.75;;;;;;;;5016810;28;46342;-73
2023/05/03 06:21:25;;;;;;;;;17.75;17.75;;;;;;;;5016631;28;45363;-73
2023/05/03 06:23:50;;;;;;;;;25.00;16.75;;;;;;;;5016508;28;45391;-73
2023/05/03 06:26:16;;;;;;;;;22.00;16.50;;;;;;;;5015419;28;45499;-73
2023/05/03 06:28:41;;;;;;;;;20.50;18.50;;;;;;;;5024307;28;46432;-73
2023/05/03 06:31:07;;;;;;;;;16.25;16.25;;;;;;;;5036542;28;45393;-73
2023/05/03 06:33:32;;;;;;;;;17.00;14.50;;;;;;;;5036459;28;45370;-73
2023/05/03 06:35:58;;;;;;;;;18.00;15.50;;;;;;;;5036657;28;45413;-73
2023/05/03 06:38:23;;;;;;;;;16.00;15.50;;;;;;;;5035126;28;48395;-73
2023/05/03 06:40:49;;;;;;;;;18.25;18.00;;;;;;;;5035753;28;45462;-73
2023/05/03 06:43:14;;;;;;;;;17.25;17.25;;;;;;;;5020399;28;45414;-72
2023/05/03 06:45:40;;;;;;;;;26.75;19.00;;;;;;;;5016236;28;45309;-73
2023/05/03 06:48:06;;;;;;;;;13.75;13.75;;;;;;;;5016270;28;46758;-73
2023/05/03 06:50:31;;;;;;;;;22.50;18.75;;;;;;;;5014863;28;45387;-73
2023/05/03 06:52:56;;;;;;;;;16.50;12.75;;;;;;;;5015901;28;45362;-74
2023/05/03 06:55:22;;;;;;;;;18.75;17.75;;;;;;;;5016309;28;45533;-74
2023/05/03 06:57:47;;;;;;;;;22.75;17.25;;;;;;;;5016233;28;45383;-74
2023/05/03 07:00:13;;;;;;;;;18.00;17.75;;;;;;;;5016045;28;45895;-73
2023/05/03 07:02:39;;;;;;;;;18.25;18.25;;;;;;;;5016321;28;45421;-74
2023/05/03 07:05:04;;;;;;;;;17.00;17.00;;;;;;;;5015884;28;45616;-74
2023/05/03 07:07:29;;;;;;;;;16.25;14.75;;;;;;;;5015633;28;46209;-73
2023/05/03 07:09:55;;;;;;;;;20.00;15.75;;;;;;;;5016061;28;45391;-73
2023/05/03 07:12:20;;;;;;;;;23.75;16.50;;;;;;;;5014632;28;45954;-73
2023/05/03 07:14:46;;;;;;;;;15.00;13.50;;;;;;;;5015715;28;45510;-73
2023/05/03 07:17:11;;;;;;;;;23.00;21.50;;;;;;;;5029046;28;46156;-73
2023/05/03 07:19:37;;;;;;;;;20.75;18.25;;;;;;;;5035348;28;45400;-73
2023/05/03 07:22:02;;;;;;;;;19.75;15.75;;;;;;;;5034673;28;45431;-73
2023/05/03 07:24:28;;;;;;;;;19.25;17.00;;;;;;;;5035270;28;45287;-73
2023/05/03 07:26:53;;;;;;;;;16.25;15.00;;;;;;;;5035616;28;46288;-73
2023/05/03 07:29:18;;;;;;;;;18.25;17.00;;;;;;;;5035455;28;45341;-73
2023/05/03 07:31:44;;;;;;;;;17.50;14.75;;;;;;;;5035963;28;45303;-73
2023/05/03 07:34:09;;;;;;;;;13.00;11.75;;;;;;;;5034066;28;45469;-73
2023/05/03 07:36:34;;;;;;;;;19.25;17.25;;;;;;;;5035573;28;46229;-73
2023/05/03 07:39:00;;;;;;;;;23.25;18.50;;;;;;;;5017412;28;45281;-73
2023/05/03 07:41:25;;;;;;;;;17.75;16.25;;;;;;;;5032841;28;45294;-73
2023/05/03 07:43:50;;;;;;;;;20.75;17.75;;;;;;;;5015069;28;45586;-73
2023/05/03 07:46:16;;;;;;;;;18.00;16.50;;;;;;;;5015395;28;46412;-73
2023/05/03 07:48:41;;;;;;;;;13.75;12.75;;;;;;;;5015198;28;45224;-73
2023/05/03 07:51:06;;;;;;;;;19.50;16.25;;;;;;;;5015436;28;45348;-73
2023/05/03 07:53:34;;;;;;;;;18.25;16.75;;;;;;;;5015341;28;45300;-74
2023/05/03 07:55:59;;;;;;;;;17.25;16.50;;;;;;;;5013863;28;47000;-74
2023/05/03 07:58:24;;;;;;;;;17.75;17.75;;;;;;;;5015456;28;45341;-73
2023/05/03 08:00:50;;;;;;;;;9.50;8.50;;;;;;;;5015806;28;45492;-74
2023/05/03 08:03:15;;;;;;;;;18.50;14.25;;;;;;;;5015462;28;45435;-74
2023/05/03 08:05:40;;;;;;;;;16.50;14.75;;;;;;;;5014826;28;46046;-73
2023/05/03 08:08:06;;;;;;;;;20.00;19.25;;;;;;;;5015115;28;45344;-73
2023/05/03 08:10:36;;;;;;;;;14.50;13.50;;;;;;;;5015253;28;45406;-73
2023/05/03 08:13:01;;;;;;;;;14.00;12.25;;;;;;;;5015395;28;45423;-73
2023/05/03 08:15:27;;;;;;;;;16.75;16.50;;;;;;;;5013409;28;48454;-73
2023/05/03 08:17:52;;;;;;;;;20.75;18.50;;;;;;;;5013697;28;45414;-73
2023/05/03 08:20:18;;;;;;;;;16.50;15.25;;;;;;;;5015251;28;45386;-73
2023/05/03 08:22:45;;;;;;;;;18.50;16.00;;;;;;;;5015537;28;45463;-73
2023/05/03 08:25:11;;;;;;;;;16.25;14.25;;;;;;;;5028111;28;45584;-74
2023/05/03 08:27:37;;;;;;;;;15.75;15.75;;;;;;;;5034654;28;45394;-73
2023/05/03 08:30:02;;;;;;;;;14.50;12.75;;;;;;;;5033825;28;45379;-73
2023/05/03 08:32:29;;;;;;;;;16.25;14.50;;;;;;;;5034496;28;45269;-73
2023/05/03 08:34:54;;;;;;;;;20.75;15.50;;;;;;;;5034890;28;47308;-71
2023/05/03 08:37:20;;;;;;;;;18.25;16.75;;;;;;;;5034883;28;45405;-71
2023/05/03 08:39:46;;;;;;;;;20.25;17.75;;;;;;;;5038771;28;45295;-72
2023/05/03 08:42:11;;;;;;;;;20.25;18.75;;;;;;;;5031216;28;45383;-73
2023/05/03 08:44:41;;;;;;;;;17.25;17.25;;;;;;;;5016797;28;45822;-72
2023/05/03 08:47:06;;;;;;;;;22.25;20.50;;;;;;;;5018244;28;45453;-71
2023/05/03 08:49:32;;;;;;;;;16.75;15.75;;;;;;;;5018762;28;45418;-72
2023/05/03 08:51:58;;;;;;;;;15.00;15.00;;;;;;;;5020050;28;45304;-73
2023/05/03 08:54:23;;;;;;;;;16.25;14.00;;;;;;;;5018307;28;47141;-73
2023/05/03 08:56:49;;;;;;;;;13.00;12.25;;;;;;;;5019033;28;45375;-74
2023/05/03 08:59:16;;;;;;;;;14.00;14.00;;;;;;;;5018495;28;45382;-72
2023/05/03 09:01:41;;;;;;;;;12.50;12.25;;;;;;;;5017637;28;45499;-73
2023/05/03 09:04:07;;;;;;;;;14.00;13.75;;;;;;;;5017767;28;45538;-72
2023/05/03 09:06:32;;;;;;;;;15.75;15.50;;;;;;;;5018307;28;45588;-72
2023/05/03 09:08:58;;;;;;;;;13.75;13.25;;;;;;;;5017747;28;45466;-72
2023/05/03 09:11:25;;;;;;;;;16.00;16.00;;;;;;;;5017868;28;45528;-71
2023/05/03 09:13:50;;;;;;;;;17.50;15.25;;;;;;;;5016132;28;47326;-73
2023/05/03 09:16:26;;;;;;;;;15.50;14.50;;;;;;;;5017404;28;45401;-72
2023/05/03 09:19:01;;;;;;;;;17.00;17.00;;;;;;;;5017939;28;45361;-72
2023/05/03 09:21:27;;;;;;;;;11.25;10.00;;;;;;;;5017754;28;45326;-71
2023/05/03 09:23:52;;;;;;;;;15.00;15.00;;;;;;;;5017408;28;45614;-73
2023/05/03 09:26:33;;;;;;;;;10.50;9.00;;;;;;;;5017813;28;45429;-72
2023/05/03 09:29:00;;;;;;;;;14.75;13.25;;;;;;;;5028912;28;45413;-72
2023/05/03 09:31:26;;;;;;;;;10.00;10.00;;;;;;;;5037304;28;45554;-72
2023/05/03 09:33:52;;;;;;;;;11.75;9.75;;;;;;;;5037664;28;47178;-72
2023/05/03 09:36:17;;;;;;;;;12.75;11.25;;;;;;;;5037406;28;45338;-72
2023/05/03 09:38:43;;;;;;;;;12.25;12.25;;;;;;;;5037778;28;45284;-72
2023/05/03 09:41:09;;;;;;;;;15.25;14.25;;;;;;;;5037433;28;45320;-72
2023/05/03 09:43:37;;;;;;;;;12.75;12.00;;;;;;;;5018430;28;46128;-73
2023/05/03 09:46:09;;;;;;;;;9.00;9.00;;;;;;;;5017031;28;45399;-72
2023/05/03 09:48:38;;;;;;;;;11.75;10.25;;;;;;;;5017412;28;45473;-73
2023/05/03 09:51:07;;;;;;;;;12.75;12.75;;;;;;;;5017313;28;45481;-72
2023/05/03 09:53:33;;;;;;;;;12.50;11.75;;;;;;;;5015893;28;48305;-72
2023/05/03 09:56:02;;;;;;;;;12.75;11.50;;;;;;;;5017134;28;45296;-73
2023/05/03 09:58:29;;;;;;;;;10.75;10.75;;;;;;;;5017287;28;45336;-71
2023/05/03 10:00:55;;;;;;;;;10.25;10.25;;;;;;;;5016737;28;45555;-74
2023/05/03 10:03:23;;;;;;;;;12.50;12.00;;;;;;;;5017322;28;45375;-75
2023/05/03 10:05:50;;;;;;;;;9.50;9.50;;;;;;;;5017303;28;45304;-74
2023/05/03 10:08:33;;;;;;;;;11.25;10.50;;;;;;;;5017445;28;45391;-75
2023/05/03 10:10:58;;;;;;;;;12.00;11.00;;;;;;;;5016775;28;45627;-74
2023/05/03 10:13:24;;;;;;;;;10.00;10.00;;;;;;;;5016587;28;46486;-75
2023/05/03 10:15:56;;;;;;;;;10.00;10.00;;;;;;;;5015389;28;46078;-73
2023/05/03 10:18:23;;;;;;;;;9.50;8.25;;;;;;;;5015728;28;45349;-73
2023/05/03 10:20:51;;;;;;;;;8.75;8.00;;;;;;;;5017363;28;45339;-73
2023/05/03 10:23:16;;;;;;;;;14.00;12.00;;;;;;;;5016650;28;46708;-74
2023/05/03 10:26:01;;;;;;;;;10.75;8.25;;;;;;;;5035135;28;45474;-73
2023/05/03 10:28:26;;;;;;;;;12.25;11.00;;;;;;;;5036456;28;45307;-73
2023/05/03 10:30:51;;;;;;;;;4.00;4.00;;;;;;;;5036764;28;45392;-73
2023/05/03 10:33:16;;;;;;;;;10.75;10.00;;;;;;;;5036219;28;46266;-74
2023/05/03 10:35:48;;;;;;;;;13.00;10.50;;;;;;;;5035480;28;45484;-73
2023/05/03 10:38:18;;;;;;;;;10.25;10.25;;;;;;;;5036792;28;45457;-74
2023/05/03 10:40:43;;;;;;;;;8.00;8.00;;;;;;;;5035158;28;45512;-74
2023/05/03 10:43:27;;;;;;;;;9.50;8.00;;;;;;;;5020969;28;45445;-74
2023/05/03 10:45:54;;;;;;;;;10.00;9.50;;;;;;;;5016728;28;45504;-72
2023/05/03 10:48:21;;;;;;;;;9.75;7.25;;;;;;;;5016307;28;45406;-71
2023/05/03 10:50:46;;;;;;;;;9.25;9.25;;;;;;;;5016647;28;45425;-72
2023/05/03 10:53:30;;;;;;;;;11.00;10.00;;;;;;;;5016196;28;45910;-73
2023/05/03 10:56:06;;;;;;;;;8.25;8.25;;;;;;;;5015200;28;45648;-71
2023/05/03 10:58:34;;;;;;;;;10.00;10.00;;;;;;;;5016337;28;45471;-71
2023/05/03 11:01:01;;;;;;;;;10.50;9.50;;;;;;;;5015492;28;45440;-79
2023/05/03 11:03:29;;;;;;;;;8.00;8.00;;;;;;;;5013160;28;45581;-73
2023/05/03 11:05:56;;;;;;;;;7.75;6.75;;;;;;;;5014835;28;45534;-73
2023/05/03 11:08:22;;;;;;;;;8.50;8.50;;;;;;;;5013094;28;45439;-73
2023/05/03 11:10:48;;;;;;;;;10.75;9.00;;;;;;;;5014427;28;45553;-73
2023/05/03 11:13:13;;;;;;;;;9.00;9.00;;;;;;;;5014504;28;45712;-73
2023/05/03 11:15:39;;;;;;;;;9.25;8.50;;;;;;;;5013717;28;45335;-73
2023/05/03 11:18:08;;;;;;;;;11.75;9.00;;;;;;;;5014435;28;45441;-73
2023/05/03 11:20:34;;;;;;;;;9.00;7.00;;;;;;;;5014626;28;45769;-73
2023/05/03 11:22:59;;;;;;;;;13.00;9.00;;;;;;;;5013800;28;45534;-73
2023/05/03 11:25:25;;;;;;;;;9.00;8.75;;;;;;;;5014198;28;45452;-73
2023/05/03 11:27:51;;;;;;;;;10.25;10.25;;;;;;;;5013458;28;45402;-72
2023/05/03 11:30:16;;;;;;;;;8.75;8.25;;;;;;;;5013904;28;45717;-73
2023/05/03 11:32:42;;;;;;;;;7.75;7.75;;;;;;;;5013544;28;46195;-73
2023/05/03 11:35:08;;;;;;;;;13.00;8.75;;;;;;;;5014265;28;45436;-73
2023/05/03 11:37:33;;;;;;;;;8.75;8.75;;;;;;;;5014436;28;45574;-72
2023/05/03 11:39:59;;;;;;;;;10.50;9.50;;;;;;;;5013978;28;45463;-73
2023/05/03 11:42:25;;;;;;;;;7.50;7.25;;;;;;;;5013398;28;45484;-73
2023/05/03 11:44:51;;;;;;;;;7.00;7.00;;;;;;;;5013183;28;45468;-73
2023/05/03 11:47:17;;;;;;;;;7.75;7.75;;;;;;;;5014827;28;45395;-73
2023/05/03 11:49:51;;;;;;;;;8.00;7.00;;;;;;;;5014971;28;45725;-73
2023/05/03 11:52:19;;;;;;;;;9.00;7.50;;;;;;;;5015147;28;46323;-73
2023/05/03 11:54:44;;;;;;;;;5.25;5.25;;;;;;;;5015126;28;45306;-72
2023/05/03 11:57:11;;;;;;;;;8.00;5.50;;;;;;;;5014994;28;45312;-73
2023/05/03 11:59:37;;;;;;;;;6.75;6.75;;;;;;;;5016097;28;45702;-73
2023/05/03 12:02:04;;;;;;;;;8.75;7.50;;;;;;;;5014727;28;46120;-73
2023/05/03 12:04:30;;;;;;;;;9.00;8.00;;;;;;;;5014709;28;45420;-73
2023/05/03 12:06:55;;;;;;;;;7.00;7.00;;;;;;;;5015606;28;45447;-73
2023/05/03 12:09:23;;;;;;;;;8.00;7.00;;;;;;;;5013746;28;45427;-73
2023/05/03 12:11:48;;;;;;;;;10.25;7.75;;;;;;;;5015372;28;45435;-73
2023/05/03 12:14:14;;;;;;;;;8.50;8.50;;;;;;;;5024860;28;45423;-72
2023/05/03 12:16:48;;;;;;;;;7.50;6.75;;;;;;;;5029887;28;45366;-73
2023/05/03 12:19:22;;;;;;;;;8.00;8.00;;;;;;;;5038256;28;45370;-72
2023/05/03 12:21:48;;;;;;;;;12.00;9.75;;;;;;;;5038183;28;46705;-72
2023/05/03 12:24:17;;;;;;;;;8.50;8.00;;;;;;;;5037755;28;45505;-73
2023/05/03 12:26:43;;;;;;;;;10.25;9.25;;;;;;;;5036702;28;45370;-73
2023/05/03 12:29:09;;;;;;;;;11.50;10.00;;;;;;;;5037945;28;45386;-73
2023/05/03 12:31:34;;;;;;;;;9.25;9.25;;;;;;;;5038218;28;45545;-72
2023/05/03 12:33:59;;;;;;;;;7.25;7.25;;;;;;;;5038115;28;45310;-72
2023/05/03 12:36:25;;;;;;;;;8.00;7.00;;;;;;;;5036842;28;45344;-72
2023/05/03 12:38:50;;;;;;;;;7.75;6.75;;;;;;;;5036735;28;45334;-72
2023/05/03 12:41:16;;;;;;;;;6.25;6.25;;;;;;;;5036341;28;46262;-73
2023/05/03 12:43:41;;;;;;;;;5.50;5.50;;;;;;;;5018353;28;45450;-73
2023/05/03 12:46:06;;;;;;;;;7.00;7.00;;;;;;;;5018405;28;45264;-73
2023/05/03 12:48:31;;;;;;;;;11.00;8.00;;;;;;;;5018296;28;45244;-72
2023/05/03 12:50:57;;;;;;;;;7.25;7.25;;;;;;;;5017865;28;47855;-73
2023/05/03 12:53:23;;;;;;;;;7.50;7.50;;;;;;;;5017288;28;45276;-73
2023/05/03 12:55:48;;;;;;;;;7.00;6.50;;;;;;;;5018090;28;45420;-72
2023/05/03 12:58:14;;;;;;;;;8.00;8.00;;;;;;;;5017939;28;45685;-72
2023/05/03 13:00:39;;;;;;;;;6.00;6.00;;;;;;;;5016412;28;46402;-73
2023/05/03 13:03:04;;;;;;;;;8.00;8.00;;;;;;;;5017741;28;45318;-72
2023/05/03 13:05:30;;;;;;;;;4.75;4.75;;;;;;;;5017410;28;45353;-73
2023/05/03 13:07:56;;;;;;;;;9.25;8.00;;;;;;;;5017656;28;45790;-73
2023/05/03 13:10:21;;;;;;;;;8.00;7.00;;;;;;;;5017643;28;46161;-72
2023/05/03 13:12:47;;;;;;;;;5.75;5.75;;;;;;;;5015921;28;45471;-73
2023/05/03 13:15:13;;;;;;;;;7.75;7.75;;;;;;;;5017661;28;45418;-73
2023/05/03 13:17:38;;;;;;;;;9.50;9.00;;;;;;;;5017523;28;45439;-73
2023/05/03 13:20:07;;;;;;;;;6.75;6.75;;;;;;;;5017327;28;45392;-73
2023/05/03 13:22:32;;;;;;;;;6.00;6.00;;;;;;;;5016808;28;45392;-73
2023/05/03 13:24:57;;;;;;;;;7.75;7.75;;;;;;;;5016018;28;45464;-72
2023/05/03 13:27:22;;;;;;;;;8.00;6.75;;;;;;;;5017353;28;45348;-73
2023/05/03 13:29:48;;;;;;;;;6.75;6.75;;;;;;;;5017501;28;45498;-72
2023/05/03 13:32:13;;;;;;;;;9.25;6.75;;;;;;;;5017425;28;45445;-73
2023/05/03 13:34:38;;;;;;;;;8.00;7.00;;;;;;;;5016967;28;45448;-73
2023/05/03 13:37:03;;;;;;;;;7.00;7.00;;;;;;;;5017202;28;45364;-73
2023/05/03 13:39:29;;;;;;;;;7.00;5.50;;;;;;;;5016805;28;46385;-72
2023/05/03 13:41:54;;;;;;;;;6.00;6.00;;;;;;;;5017206;28;45404;-73
2023/05/03 13:44:23;;;;;;;;;7.00;6.75;;;;;;;;5015950;28;45387;-74
2023/05/03 13:46:49;;;;;;;;;5.25;5.25;;;;;;;;5015796;28;45327;-75
2023/05/03 13:49:14;;;;;;;;;6.50;6.50;;;;;;;;5016678;28;45397;-73
2023/05/03 13:51:40;;;;;;;;;7.75;7.00;;;;;;;;5016707;28;45359;-73
2023/05/03 13:54:06;;;;;;;;;8.25;6.75;;;;;;;;5015838;28;45500;-72
2023/05/03 13:56:32;;;;;;;;;5.50;5.50;;;;;;;;5017021;28;45356;-73
2023/05/03 13:58:58;;;;;;;;;5.75;5.25;;;;;;;;5017035;28;45498;-73
2023/05/03 14:01:23;;;;;;;;;6.00;6.00;;;;;;;;5015308;28;45382;-73
2023/05/03 14:03:49;;;;;;;;;5.50;5.50;;;;;;;;5015533;28;45468;-73
2023/05/03 14:06:14;;;;;;;;;6.75;5.75;;;;;;;;5016486;28;45529;-73
2023/05/03 14:08:39;;;;;;;;;7.50;4.25;;;;;;;;5015756;28;48187;-73
2023/05/03 14:11:10;;;;;;;;;8.25;6.50;;;;;;;;5016248;28;45455;-73
2023/05/03 14:13:36;;;;;;;;;4.25;4.25;;;;;;;;5030100;28;45413;-72
2023/05/03 14:16:01;;;;;;;;;6.00;6.00;;;;;;;;5015286;28;45360;-73
2023/05/03 14:18:26;;;;;;;;;7.75;5.75;;;;;;;;5016510;28;46528;-72